createdAt,value
2018-04-26T00:00:36.302Z,3.27
2018-04-26T00:03:03.020Z,3.33
2018-04-26T00:05:29.718Z,3.50
2018-04-26T00:07:56.417Z,3.50
2018-04-26T00:10:23.145Z,3.17
2018-04-26T00:12:49.850Z,3.70
2018-04-26T00:15:16.549Z,3.80
2018-04-26T00:17:43.264Z,4.00
2018-04-26T00:20:10.044Z,3.60
2018-04-26T00:22:36.748Z,4.30
2018-04-26T00:25:03.431Z,3.30
2018-04-26T00:27:30.186Z,3.67
2018-04-26T00:29:56.891Z,3.17
2018-04-26T00:32:23.604Z,3.20
2018-04-26T00:34:50.322Z,3.43
2018-04-26T00:37:17.094Z,3.40
2018-04-26T00:39:43.877Z,3.00
2018-04-26T00:42:10.583Z,3.40
2018-04-26T00:44:37.280Z,3.33
2018-04-26T00:47:03.983Z,3.63
2018-04-26T00:49:30.692Z,4.37
2018-04-26T00:51:58.223Z,2.90
2018-04-26T00:54:24.944Z,3.30
2018-04-26T00:56:51.696Z,3.47
2018-04-26T00:59:19.161Z,3.40
2018-04-26T01:01:45.864Z,3.43
2018-04-26T01:04:12.572Z,3.93
2018-04-26T01:06:39.319Z,3.33
2018-04-26T01:09:06.045Z,3.60
2018-04-26T01:11:32.780Z,3.50
2018-04-26T01:13:59.463Z,3.43
2018-04-26T01:16:26.178Z,3.47
2018-04-26T01:18:52.857Z,3.37
2018-04-26T01:21:19.574Z,3.87
2018-04-26T01:23:46.319Z,3.63
2018-04-26T01:26:12.991Z,3.50
2018-04-26T01:28:39.690Z,3.80
2018-04-26T01:31:06.446Z,4.00
2018-04-26T01:33:33.154Z,3.80
2018-04-26T01:36:00.264Z,3.83
2018-04-26T01:38:26.963Z,4.60
2018-04-26T01:40:53.672Z,3.43
2018-04-26T01:43:20.373Z,3.97
2018-04-26T01:45:47.059Z,4.27
2018-04-26T01:48:13.749Z,4.30
2018-04-26T01:50:40.482Z,4.20
2018-04-26T01:53:07.446Z,4.57
2018-04-26T01:55:34.157Z,4.80
2018-04-26T01:58:00.878Z,4.53
2018-04-26T02:00:28.810Z,4.90
2018-04-26T02:02:55.539Z,4.50
2018-04-26T02:05:22.263Z,4.00
2018-04-26T02:07:49.001Z,4.10
2018-04-26T02:10:15.745Z,3.90
2018-04-26T02:12:42.487Z,4.30
2018-04-26T02:15:09.192Z,4.60
2018-04-26T02:17:35.873Z,4.23
2018-04-26T02:20:02.608Z,4.80
2018-04-26T02:22:29.322Z,4.33
2018-04-26T02:24:56.038Z,4.17
2018-04-26T02:27:22.779Z,4.27
2018-04-26T02:29:49.472Z,3.90
2018-04-26T02:32:16.210Z,4.20
2018-04-26T02:34:42.921Z,4.20
2018-04-26T02:37:09.649Z,3.70
2018-04-26T02:39:36.352Z,3.73
2018-04-26T02:42:03.072Z,4.30
2018-04-26T02:44:29.793Z,3.70
2018-04-26T02:46:56.512Z,4.30
2018-04-26T02:49:23.205Z,3.93
2018-04-26T02:51:49.971Z,4.40
2018-04-26T02:54:16.701Z,4.20
2018-04-26T02:56:43.442Z,3.63
2018-04-26T02:59:10.207Z,4.03
2018-04-26T03:01:36.965Z,3.70
2018-04-26T03:04:04.015Z,3.40
2018-04-26T03:06:30.731Z,4.40
2018-04-26T03:08:57.430Z,3.60
2018-04-26T03:11:24.170Z,4.10
2018-04-26T03:13:50.903Z,3.40
2018-04-26T03:16:17.608Z,3.90
2018-04-26T03:18:44.320Z,4.13
2018-04-26T03:21:11.042Z,3.47
2018-04-26T03:23:37.741Z,3.27
2018-04-26T03:26:04.479Z,3.33
2018-04-26T03:28:31.193Z,3.80
2018-04-26T03:30:57.987Z,3.43
2018-04-26T03:33:24.962Z,3.43
2018-04-26T03:35:51.675Z,3.33
2018-04-26T03:38:18.394Z,3.10
2018-04-26T03:40:45.077Z,3.50
2018-04-26T03:43:11.769Z,3.13
2018-04-26T03:45:38.500Z,3.80
2018-04-26T03:48:05.245Z,3.63
2018-04-26T03:50:31.962Z,3.23
2018-04-26T03:52:58.658Z,3.40
2018-04-26T03:55:25.418Z,3.43
2018-04-26T03:57:52.114Z,3.20
2018-04-26T04:00:24.678Z,4.03
2018-04-26T04:02:57.317Z,3.57
2018-04-26T04:05:29.899Z,4.07
2018-04-26T04:07:56.602Z,4.00
2018-04-26T04:10:23.298Z,3.90
2018-04-26T04:12:49.996Z,3.40
2018-04-26T04:15:16.691Z,3.53
2018-04-26T04:17:43.414Z,3.23
2018-04-26T04:20:10.121Z,3.77
2018-04-26T04:22:36.791Z,3.97
2018-04-26T04:25:04.028Z,4.30
2018-04-26T04:27:30.713Z,4.00
2018-04-26T04:29:57.392Z,3.47
2018-04-26T04:32:24.088Z,3.63
2018-04-26T04:34:50.771Z,3.83
2018-04-26T04:37:17.501Z,3.60
2018-04-26T04:39:44.219Z,3.20
2018-04-26T04:42:10.907Z,3.90
2018-04-26T04:44:37.599Z,3.63
2018-04-26T04:47:04.303Z,3.80
2018-04-26T04:49:31.009Z,4.20
2018-04-26T04:51:57.850Z,3.90
2018-04-26T04:54:24.565Z,4.13
2018-04-26T04:56:51.237Z,4.50
2018-04-26T04:59:17.941Z,4.13
2018-04-26T05:01:44.623Z,4.10
2018-04-26T05:04:11.338Z,4.27
2018-04-26T05:06:38.044Z,3.73
2018-04-26T05:09:04.730Z,4.50
2018-04-26T05:11:31.991Z,4.00
2018-04-26T05:13:58.689Z,4.50
2018-04-26T05:16:25.388Z,4.40
2018-04-26T05:18:52.096Z,4.00
2018-04-26T05:21:18.819Z,4.70
2018-04-26T05:23:45.955Z,6.33
2018-04-26T05:26:12.634Z,3.93
2018-04-26T05:28:39.385Z,4.17
2018-04-26T05:31:07.098Z,3.70
2018-04-26T05:33:34.273Z,3.50
2018-04-26T05:36:00.953Z,3.47
2018-04-26T05:38:27.624Z,3.10
2018-04-26T05:40:54.363Z,2.53
2018-04-26T05:43:21.071Z,3.37
2018-04-26T05:45:47.795Z,3.40
2018-04-26T05:48:14.519Z,3.13
2018-04-26T05:50:41.217Z,3.03
2018-04-26T05:53:07.953Z,2.80
2018-04-26T05:55:34.636Z,3.40
2018-04-26T05:58:01.395Z,2.90
2018-04-26T06:00:28.263Z,3.20
2018-04-26T06:02:54.935Z,3.10
2018-04-26T06:05:21.680Z,2.70
2018-04-26T06:07:48.389Z,2.40
2018-04-26T06:10:15.080Z,2.90
2018-04-26T06:12:41.785Z,2.60
2018-04-26T06:15:08.460Z,2.33
2018-04-26T06:17:35.177Z,2.70
2018-04-26T06:20:01.886Z,2.80
2018-04-26T06:22:28.892Z,2.67
2018-04-26T06:24:55.676Z,2.60
2018-04-26T06:27:22.388Z,2.70
2018-04-26T06:29:50.048Z,2.73
2018-04-26T06:32:16.728Z,2.40
2018-04-26T06:34:43.420Z,2.67
2018-04-26T06:37:10.122Z,2.30
2018-04-26T06:39:37.205Z,2.20
2018-04-26T06:42:03.868Z,3.00
2018-04-26T06:44:30.583Z,2.73
2018-04-26T06:46:57.281Z,2.30
2018-04-26T06:49:23.996Z,2.40
2018-04-26T06:51:50.712Z,2.47
2018-04-26T06:54:17.442Z,2.23
2018-04-26T06:56:44.164Z,2.33
2018-04-26T06:59:10.880Z,2.17
2018-04-26T07:01:37.571Z,2.47
2018-04-26T07:04:04.325Z,2.67
2018-04-26T07:06:31.003Z,2.50
2018-04-26T07:08:57.718Z,1.90
2018-04-26T07:11:24.401Z,2.10
2018-04-26T07:13:51.394Z,2.83
2018-04-26T07:16:18.084Z,2.43
2018-04-26T07:18:44.796Z,2.23
2018-04-26T07:21:11.505Z,2.30
2018-04-26T07:23:38.190Z,2.30
2018-04-26T07:26:04.880Z,2.67
2018-04-26T07:28:31.788Z,2.13
2018-04-26T07:30:58.455Z,2.30
2018-04-26T07:33:25.171Z,2.00
2018-04-26T07:35:51.904Z,1.80
2018-04-26T07:38:18.619Z,2.80
2018-04-26T07:40:45.304Z,2.20
2018-04-26T07:43:12.252Z,2.20
2018-04-26T07:45:38.940Z,2.07
2018-04-26T07:48:05.649Z,2.20
2018-04-26T07:50:32.359Z,2.53
2018-04-26T07:52:59.118Z,2.63
2018-04-26T07:55:25.857Z,2.43
2018-04-26T07:57:52.530Z,2.10
2018-04-26T08:00:19.218Z,2.67
2018-04-26T08:02:45.894Z,2.40
2018-04-26T08:05:12.606Z,2.20
2018-04-26T08:07:39.319Z,2.57
2018-04-26T08:10:06.022Z,2.57
2018-04-26T08:12:32.717Z,2.00
2018-04-26T08:14:59.392Z,2.57
2018-04-26T08:17:26.113Z,2.90
2018-04-26T08:19:52.804Z,2.53
2018-04-26T08:22:19.519Z,2.47
2018-04-26T08:24:46.233Z,2.50
2018-04-26T08:27:12.929Z,2.87
2018-04-26T08:29:39.638Z,2.60
2018-04-26T08:32:06.339Z,2.63
2018-04-26T08:34:33.053Z,2.70
2018-04-26T08:36:59.736Z,2.50
2018-04-26T08:39:26.429Z,1.90
2018-04-26T08:41:53.151Z,2.30
2018-04-26T08:44:19.864Z,2.50
2018-04-26T08:46:46.583Z,2.57
2018-04-26T08:49:13.351Z,2.90
2018-04-26T08:51:40.049Z,2.40
2018-04-26T08:54:06.782Z,3.20
2018-04-26T08:56:33.570Z,2.10
2018-04-26T08:59:00.251Z,2.33
2018-04-26T09:01:26.931Z,2.63
2018-04-26T09:03:53.687Z,2.13
2018-04-26T09:06:20.378Z,2.00
2018-04-26T09:08:47.116Z,2.50
2018-04-26T09:11:13.816Z,2.63
2018-04-26T09:13:40.590Z,2.37
2018-04-26T09:16:07.300Z,1.97
2018-04-26T09:18:34.040Z,2.43
2018-04-26T09:21:00.745Z,2.07
2018-04-26T09:23:27.456Z,1.77
2018-04-26T09:25:54.125Z,2.13
2018-04-26T09:28:20.855Z,2.10
2018-04-26T09:30:47.569Z,2.30
2018-04-26T09:33:14.329Z,1.80
2018-04-26T09:35:41.061Z,1.67
2018-04-26T09:38:07.775Z,2.10
2018-04-26T09:40:34.513Z,2.40
2018-04-26T09:43:01.269Z,2.10
2018-04-26T09:45:28.056Z,2.13
2018-04-26T09:47:55.712Z,1.97
2018-04-26T09:50:22.411Z,1.73
2018-04-26T09:52:49.105Z,1.97
2018-04-26T09:55:15.840Z,1.73
2018-04-26T09:57:42.527Z,1.83
2018-04-26T10:00:09.254Z,1.90
2018-04-26T10:02:41.714Z,2.00
2018-04-26T10:05:08.442Z,2.20
2018-04-26T10:07:35.207Z,1.50
2018-04-26T10:10:01.915Z,1.90
2018-04-26T10:12:28.607Z,1.77
2018-04-26T10:14:55.300Z,1.67
2018-04-26T10:17:22.021Z,1.50
2018-04-26T10:19:48.718Z,1.50
2018-04-26T10:22:15.484Z,1.47
2018-04-26T10:24:42.181Z,1.33
2018-04-26T10:27:08.886Z,1.93
2018-04-26T10:29:35.590Z,1.60
2018-04-26T10:32:02.283Z,1.73
2018-04-26T10:34:28.987Z,1.80
2018-04-26T10:36:55.659Z,1.60
2018-04-26T10:39:22.353Z,2.13
2018-04-26T10:41:49.061Z,2.37
2018-04-26T10:44:15.799Z,1.67
2018-04-26T10:46:42.515Z,1.50
2018-04-26T10:49:09.226Z,1.63
2018-04-26T10:51:35.972Z,1.87
2018-04-26T10:54:02.711Z,1.67
2018-04-26T10:56:29.403Z,1.43
2018-04-26T10:58:56.135Z,1.40
2018-04-26T11:01:22.856Z,1.40
2018-04-26T11:03:49.595Z,1.60
2018-04-26T11:06:16.427Z,1.20
2018-04-26T11:08:43.157Z,1.50
2018-04-26T11:11:09.851Z,1.20
2018-04-26T11:13:36.556Z,0.90
2018-04-26T11:16:03.312Z,1.10
2018-04-26T11:18:30.005Z,1.80
2018-04-26T11:20:56.707Z,1.47
2018-04-26T11:23:23.383Z,1.13
2018-04-26T11:25:50.149Z,1.50
2018-04-26T11:28:16.809Z,1.00
2018-04-26T11:30:43.521Z,1.27
2018-04-26T11:33:10.237Z,1.00
2018-04-26T11:35:36.997Z,1.50
2018-04-26T11:38:03.665Z,1.30
2018-04-26T11:40:30.371Z,1.00
2018-04-26T11:42:58.708Z,1.20
2018-04-26T11:45:25.462Z,1.00
2018-04-26T11:47:52.188Z,1.20
2018-04-26T11:50:18.889Z,1.23
2018-04-26T11:52:45.611Z,1.30
2018-04-26T11:55:12.381Z,1.20
2018-04-26T11:57:39.088Z,1.50
2018-04-26T12:00:05.938Z,1.40
2018-04-26T12:02:32.760Z,1.43
2018-04-26T12:04:59.621Z,1.67
2018-04-26T12:07:26.811Z,1.53
2018-04-26T12:09:53.568Z,1.13
2018-04-26T12:12:20.351Z,1.60
2018-04-26T12:14:47.109Z,1.10
2018-04-26T12:17:13.847Z,1.00
2018-04-26T12:19:40.689Z,1.10
2018-04-26T12:22:07.497Z,1.13
2018-04-26T12:24:34.215Z,1.20
2018-04-26T12:27:01.043Z,1.60
2018-04-26T12:29:27.812Z,1.57
2018-04-26T12:31:54.592Z,1.30
2018-04-26T12:34:21.422Z,0.93
2018-04-26T12:36:48.152Z,1.30
2018-04-26T12:39:14.920Z,1.00
2018-04-26T12:41:41.910Z,1.00
2018-04-26T12:44:08.605Z,1.23
2018-04-26T12:46:35.552Z,1.00
2018-04-26T12:49:02.546Z,1.10
2018-04-26T12:51:29.292Z,1.00
2018-04-26T12:53:56.363Z,1.10
2018-04-26T12:56:23.182Z,1.27
2018-04-26T12:58:50.016Z,1.20
2018-04-26T13:01:16.743Z,1.30
2018-04-26T13:03:43.433Z,0.93
2018-04-26T13:06:10.187Z,1.00
2018-04-26T13:08:36.909Z,1.27
2018-04-26T13:11:03.576Z,1.00
2018-04-26T13:13:30.302Z,1.23
2018-04-26T13:15:57.023Z,1.10
2018-04-26T13:18:23.737Z,1.17
2018-04-26T13:20:50.452Z,1.27
2018-04-26T13:23:17.222Z,1.67
2018-04-26T13:25:43.914Z,1.00
2018-04-26T13:28:10.639Z,1.53
2018-04-26T13:30:37.345Z,1.53
2018-04-26T13:33:04.047Z,0.97
2018-04-26T13:35:31.001Z,0.90
2018-04-26T13:37:57.693Z,1.17
2018-04-26T13:40:24.412Z,1.10
2018-04-26T13:42:51.110Z,1.27
2018-04-26T13:45:17.821Z,0.77
2018-04-26T13:47:44.538Z,0.90
2018-04-26T13:50:11.301Z,0.90
2018-04-26T13:52:38.012Z,1.00
2018-04-26T13:55:04.688Z,1.00
2018-04-26T13:57:31.385Z,1.10
2018-04-26T13:59:58.077Z,1.13
2018-04-26T14:02:24.780Z,1.20
2018-04-26T14:04:51.505Z,1.10
2018-04-26T14:07:18.215Z,1.50
2018-04-26T14:09:44.888Z,0.90
2018-04-26T14:12:11.590Z,1.10
2018-04-26T14:14:38.272Z,1.10
2018-04-26T14:17:04.983Z,1.07
2018-04-26T14:19:31.656Z,1.00
2018-04-26T14:21:58.368Z,1.03
2018-04-26T14:24:25.106Z,1.10
2018-04-26T14:26:51.781Z,1.07
2018-04-26T14:29:18.543Z,1.10
2018-04-26T14:31:45.247Z,1.07
2018-04-26T14:34:11.959Z,1.13
2018-04-26T14:36:38.635Z,0.90
2018-04-26T14:39:05.376Z,0.87
2018-04-26T14:41:32.082Z,1.20
2018-04-26T14:43:58.787Z,1.03
2018-04-26T14:46:25.462Z,1.37
2018-04-26T14:48:52.162Z,0.87
2018-04-26T14:51:18.868Z,1.20
2018-04-26T14:53:45.575Z,1.00
2018-04-26T14:56:12.320Z,0.90
2018-04-26T14:58:39.059Z,1.10
2018-04-26T15:01:05.822Z,0.90
2018-04-26T15:03:32.527Z,1.03
2018-04-26T15:05:59.234Z,1.13
2018-04-26T15:08:25.929Z,1.40
2018-04-26T15:10:52.644Z,1.03
2018-04-26T15:13:19.386Z,1.10
2018-04-26T15:15:46.161Z,1.37
2018-04-26T15:18:12.888Z,1.40
2018-04-26T15:20:39.621Z,1.30
2018-04-26T15:23:06.300Z,0.90
2018-04-26T15:25:33.033Z,1.07
2018-04-26T15:27:59.754Z,0.83
2018-04-26T15:30:26.459Z,1.33
2018-04-26T15:32:53.170Z,1.30
2018-04-26T15:35:19.889Z,1.00
2018-04-26T15:37:46.921Z,0.77
2018-04-26T15:40:14.191Z,1.03
2018-04-26T15:42:41.235Z,0.80
2018-04-26T15:45:08.239Z,1.20
2018-04-26T15:47:35.346Z,1.30
2018-04-26T15:50:02.487Z,0.80
2018-04-26T15:52:41.238Z,1.13
2018-04-26T15:55:14.297Z,1.47
2018-04-26T15:57:53.451Z,1.20
2018-04-26T16:00:28.295Z,1.20
2018-04-26T16:03:04.257Z,1.10
2018-04-26T16:05:37.120Z,1.63
2018-04-26T16:08:15.574Z,0.90
2018-04-26T16:10:54.323Z,0.97
2018-04-26T16:13:33.029Z,1.00
2018-04-26T16:16:11.903Z,1.03
2018-04-26T16:18:44.816Z,0.80
2018-04-26T16:21:23.560Z,1.00
2018-04-26T16:24:03.708Z,1.30
2018-04-26T16:26:36.693Z,1.10
2018-04-26T16:29:15.460Z,1.13
2018-04-26T16:32:03.130Z,1.07
2018-04-26T16:34:46.294Z,1.07
2018-04-26T16:37:19.763Z,1.17
2018-04-26T16:39:46.792Z,1.03
2018-04-26T16:42:13.474Z,0.93
2018-04-26T16:44:40.353Z,1.80
2018-04-26T16:47:07.065Z,1.23
2018-04-26T16:49:33.765Z,1.50
2018-04-26T16:52:00.458Z,1.40
2018-04-26T16:54:27.299Z,1.20
2018-04-26T16:56:54.059Z,1.53
2018-04-26T16:59:20.745Z,1.33
2018-04-26T17:01:47.467Z,1.07
2018-04-26T17:04:14.209Z,1.27
2018-04-26T17:06:40.912Z,1.40
2018-04-26T17:09:07.612Z,1.50
2018-04-26T17:11:34.284Z,1.37
2018-04-26T17:14:00.993Z,1.10
2018-04-26T17:16:27.725Z,1.57
2018-04-26T17:18:54.433Z,0.90
2018-04-26T17:21:21.150Z,1.43
2018-04-26T17:23:47.871Z,1.60
2018-04-26T17:26:14.592Z,1.77
2018-04-26T17:28:41.370Z,1.40
2018-04-26T17:31:08.071Z,1.30
2018-04-26T17:33:34.795Z,1.50
2018-04-26T17:36:01.503Z,1.20
2018-04-26T17:38:28.192Z,1.33
2018-04-26T17:40:54.891Z,1.10
2018-04-26T17:43:21.592Z,1.57
2018-04-26T17:45:48.325Z,1.50
2018-04-26T17:48:15.016Z,1.40
2018-04-26T17:50:42.089Z,1.33
2018-04-26T17:53:08.795Z,1.10
2018-04-26T17:55:35.478Z,1.23
2018-04-26T17:58:02.227Z,1.50
2018-04-26T18:00:28.925Z,1.50
2018-04-26T18:02:55.634Z,1.43
2018-04-26T18:05:22.573Z,1.63
2018-04-26T18:07:49.333Z,1.47
2018-04-26T18:10:16.123Z,1.63
2018-04-26T18:12:43.054Z,1.60
2018-04-26T18:15:09.765Z,1.70
2018-04-26T18:17:36.446Z,1.50
2018-04-26T18:20:08.577Z,2.17
2018-04-26T18:22:29.868Z,2.10
2018-04-26T18:24:56.581Z,1.90
2018-04-26T18:27:23.288Z,1.70
2018-04-26T18:29:50.101Z,1.43
2018-04-26T18:32:16.931Z,1.80
2018-04-26T18:34:43.962Z,1.80
2018-04-26T18:37:10.732Z,2.07
2018-04-26T18:39:37.429Z,1.90
2018-04-26T18:42:04.137Z,2.00
2018-04-26T18:44:30.928Z,2.00
2018-04-26T18:46:57.616Z,2.47
2018-04-26T18:49:24.369Z,2.40
2018-04-26T18:51:51.102Z,2.63
2018-04-26T18:54:17.890Z,3.00
2018-04-26T18:56:44.697Z,2.30
2018-04-26T18:59:11.492Z,2.93
2018-04-26T19:01:38.229Z,3.23
2018-04-26T19:04:04.991Z,3.53
2018-04-26T19:06:31.747Z,2.83
2018-04-26T19:08:58.509Z,2.77
2018-04-26T19:11:25.347Z,2.90
2018-04-26T19:13:52.189Z,2.43
2018-04-26T19:16:19.024Z,2.80
2018-04-26T19:18:45.941Z,3.00
2018-04-26T19:21:12.986Z,3.00
2018-04-26T19:23:40.639Z,3.03
2018-04-26T19:26:07.619Z,2.80
2018-04-26T19:28:34.635Z,2.30
2018-04-26T19:31:01.729Z,2.70
2018-04-26T19:33:28.752Z,2.43
2018-04-26T19:35:55.796Z,2.50
2018-04-26T19:38:23.467Z,2.50
2018-04-26T19:40:50.512Z,2.67
2018-04-26T19:43:17.649Z,2.20
2018-04-26T19:45:45.106Z,2.23
2018-04-26T19:48:12.094Z,1.90
2018-04-26T19:50:39.139Z,1.67
2018-04-26T19:53:06.237Z,1.80
2018-04-26T19:55:33.308Z,2.10
2018-04-26T19:58:00.367Z,1.73
2018-04-26T20:00:27.380Z,1.90
2018-04-26T20:02:54.395Z,1.93
2018-04-26T20:05:21.521Z,2.20
2018-04-26T20:07:48.561Z,1.90
2018-04-26T20:10:15.606Z,2.33
2018-04-26T20:12:42.655Z,2.00
2018-04-26T20:15:09.710Z,2.00
2018-04-26T20:17:36.815Z,2.00
2018-04-26T20:20:03.885Z,1.87
2018-04-26T20:22:30.964Z,2.00
2018-04-26T20:24:58.013Z,1.90
2018-04-26T20:27:25.147Z,1.90
2018-04-26T20:29:52.194Z,1.90
2018-04-26T20:32:19.227Z,1.80
2018-04-26T20:34:46.254Z,1.80
2018-04-26T20:37:13.346Z,2.63
2018-04-26T20:39:40.470Z,2.73
2018-04-26T20:42:07.523Z,2.27
2018-04-26T20:44:40.385Z,2.30
2018-04-26T20:47:07.421Z,2.50
2018-04-26T20:49:34.444Z,2.47
2018-04-26T20:52:01.490Z,2.67
2018-04-26T20:54:28.498Z,2.47
2018-04-26T20:56:55.517Z,2.10
2018-04-26T20:59:22.509Z,2.40
2018-04-26T21:01:49.404Z,3.00
2018-04-26T21:04:16.306Z,2.70
2018-04-26T21:06:43.063Z,2.10
2018-04-26T21:09:09.994Z,2.60
2018-04-26T21:11:36.746Z,2.40
2018-04-26T21:14:04.519Z,2.63
2018-04-26T21:16:31.345Z,2.50
2018-04-26T21:18:58.122Z,2.17
2018-04-26T21:21:24.889Z,2.50
2018-04-26T21:23:51.828Z,2.57
2018-04-26T21:26:18.547Z,2.70
2018-04-26T21:28:45.501Z,2.43
2018-04-26T21:31:12.631Z,2.57
2018-04-26T21:33:39.358Z,2.23
2018-04-26T21:36:06.177Z,2.80
2018-04-26T21:38:32.991Z,2.83
2018-04-26T21:40:59.930Z,2.87
2018-04-26T21:43:26.709Z,2.60
2018-04-26T21:45:53.472Z,2.93
2018-04-26T21:48:20.344Z,2.87
2018-04-26T21:50:52.749Z,2.30
2018-04-26T21:53:25.250Z,3.07
2018-04-26T21:55:57.695Z,3.50
2018-04-26T21:58:30.194Z,3.10
2018-04-26T22:01:02.689Z,2.33
2018-04-26T22:03:47.231Z,2.43
2018-04-26T22:06:14.003Z,2.50
2018-04-26T22:08:40.724Z,2.83
2018-04-26T22:11:07.495Z,3.00
2018-04-26T22:13:34.418Z,2.90
2018-04-26T22:16:01.215Z,2.63
2018-04-26T22:18:27.985Z,3.03
2018-04-26T22:20:54.825Z,3.20
2018-04-26T22:23:21.566Z,3.00
2018-04-26T22:25:48.397Z,2.90
2018-04-26T22:28:15.998Z,2.90
2018-04-26T22:30:43.063Z,2.80
2018-04-26T22:33:09.771Z,2.67
2018-04-26T22:35:36.544Z,2.97
2018-04-26T22:38:03.739Z,3.50
2018-04-26T22:40:30.524Z,2.73
2018-04-26T22:42:57.312Z,2.93
2018-04-26T22:45:24.310Z,3.17
2018-04-26T22:47:51.068Z,2.60
2018-04-26T22:50:17.774Z,2.60
2018-04-26T22:52:44.611Z,3.33
2018-04-26T22:55:11.392Z,3.00
2018-04-26T22:57:38.217Z,3.00
2018-04-26T23:00:05.021Z,3.20
2018-04-26T23:02:31.878Z,2.73
2018-04-26T23:04:58.664Z,3.27
2018-04-26T23:07:25.472Z,3.20
2018-04-26T23:09:52.284Z,3.40
2018-04-26T23:12:19.124Z,3.23
2018-04-26T23:14:45.856Z,2.90
2018-04-26T23:17:12.778Z,3.00
2018-04-26T23:19:39.611Z,3.10
2018-04-26T23:22:06.521Z,2.90
2018-04-26T23:24:33.286Z,3.60
2018-04-26T23:27:00.755Z,3.80
2018-04-26T23:29:27.569Z,3.50
2018-04-26T23:31:54.443Z,3.70
2018-04-26T23:34:21.353Z,3.87
2018-04-26T23:36:48.125Z,3.43
2018-04-26T23:39:14.974Z,3.33
2018-04-26T23:41:41.705Z,3.50
2018-04-26T23:44:08.653Z,3.33
2018-04-26T23:46:35.541Z,3.40
2018-04-26T23:49:03.168Z,4.10
2018-04-26T23:51:29.995Z,3.60
2018-04-26T23:53:57.226Z,4.10
2018-04-26T23:56:24.040Z,3.67
2018-04-26T23:58:50.904Z,3.10
